sensor_id;sensor_type;location;lat;lon;timestamp;P1;durP1;ratioP1;P2;durP2;ratioP2
78877;SDS011;68257;43.514;1.498;2023-09-12T00:01:59;6.47;;;4.50;;
78877;SDS011;68257;43.514;1.498;2023-09-12T00:04:24;6.27;;;3.53;;
78877;SDS011;68257;43.514;1.498;2023-09-12T00:06:49;5.73;;;3.60;;
78877;SDS011;68257;43.514;1.498;2023-09-12T00:09:15;5.07;;;2.80;;
78877;SDS011;68257;43.514;1.498;2023-09-12T00:11:40;6.50;;;2.70;;
78877;SDS011;68257;43.514;1.498;2023-09-12T00:14:06;5.13;;;2.70;;
78877;SDS011;68257;43.514;1.498;2023-09-12T00:16:33;4.45;;;2.65;;
78877;SDS011;68257;43.514;1.498;2023-09-12T00:18:58;5.17;;;2.70;;
78877;SDS011;68257;43.514;1.498;2023-09-12T00:21:24;5.43;;;2.83;;
78877;SDS011;68257;43.514;1.498;2023-09-12T00:23:49;4.60;;;2.30;;
78877;SDS011;68257;43.514;1.498;2023-09-12T00:26:15;5.00;;;2.37;;
78877;SDS011;68257;43.514;1.498;2023-09-12T00:28:40;5.50;;;2.50;;
78877;SDS011;68257;43.514;1.498;2023-09-12T00:31:05;4.37;;;2.50;;
78877;SDS011;68257;43.514;1.498;2023-09-12T00:33:31;5.90;;;2.37;;
78877;SDS011;68257;43.514;1.498;2023-09-12T00:35:56;4.87;;;2.50;;
78877;SDS011;68257;43.514;1.498;2023-09-12T00:38:22;4.20;;;2.20;;
78877;SDS011;68257;43.514;1.498;2023-09-12T00:40:47;5.77;;;2.70;;
78877;SDS011;68257;43.514;1.498;2023-09-12T00:43:12;4.20;;;2.60;;
78877;SDS011;68257;43.514;1.498;2023-09-12T00:45:38;5.50;;;2.50;;
78877;SDS011;68257;43.514;1.498;2023-09-12T00:48:04;4.43;;;2.90;;
78877;SDS011;68257;43.514;1.498;2023-09-12T00:50:30;6.53;;;2.63;;
78877;SDS011;68257;43.514;1.498;2023-09-12T00:52:56;5.18;;;2.50;;
78877;SDS011;68257;43.514;1.498;2023-09-12T00:55:21;6.17;;;2.23;;
78877;SDS011;68257;43.514;1.498;2023-09-12T00:57:47;4.75;;;2.33;;
78877;SDS011;68257;43.514;1.498;2023-09-12T01:00:13;4.60;;;2.37;;
78877;SDS011;68257;43.514;1.498;2023-09-12T01:02:42;5.07;;;2.30;;
78877;SDS011;68257;43.514;1.498;2023-09-12T01:05:09;4.53;;;2.35;;
78877;SDS011;68257;43.514;1.498;2023-09-12T01:07:35;6.03;;;2.40;;
78877;SDS011;68257;43.514;1.498;2023-09-12T01:10:01;5.03;;;2.27;;
78877;SDS011;68257;43.514;1.498;2023-09-12T01:12:27;6.72;;;2.53;;
78877;SDS011;68257;43.514;1.498;2023-09-12T01:14:54;4.30;;;2.33;;
78877;SDS011;68257;43.514;1.498;2023-09-12T01:17:20;4.13;;;2.38;;
78877;SDS011;68257;43.514;1.498;2023-09-12T01:19:45;4.63;;;2.37;;
78877;SDS011;68257;43.514;1.498;2023-09-12T01:27:50;5.85;;;2.47;;
78877;SDS011;68257;43.514;1.498;2023-09-12T01:30:22;3.70;;;2.28;;
78877;SDS011;68257;43.514;1.498;2023-09-12T01:32:48;5.50;;;2.53;;
78877;SDS011;68257;43.514;1.498;2023-09-12T01:35:14;4.43;;;2.70;;
78877;SDS011;68257;43.514;1.498;2023-09-12T01:37:39;4.67;;;2.50;;
78877;SDS011;68257;43.514;1.498;2023-09-12T01:40:05;5.53;;;2.37;;
78877;SDS011;68257;43.514;1.498;2023-09-12T01:42:42;7.75;;;2.70;;
78877;SDS011;68257;43.514;1.498;2023-09-12T01:45:09;5.95;;;2.70;;
78877;SDS011;68257;43.514;1.498;2023-09-12T01:47:36;4.90;;;2.43;;
78877;SDS011;68257;43.514;1.498;2023-09-12T01:50:02;5.00;;;2.45;;
78877;SDS011;68257;43.514;1.498;2023-09-12T01:52:28;5.75;;;2.63;;
78877;SDS011;68257;43.514;1.498;2023-09-12T01:54:53;6.53;;;2.63;;
78877;SDS011;68257;43.514;1.498;2023-09-12T01:57:20;4.88;;;2.70;;
78877;SDS011;68257;43.514;1.498;2023-09-12T01:59:49;6.15;;;2.78;;
78877;SDS011;68257;43.514;1.498;2023-09-12T02:02:15;4.88;;;2.80;;
78877;SDS011;68257;43.514;1.498;2023-09-12T02:04:41;3.80;;;2.47;;
78877;SDS011;68257;43.514;1.498;2023-09-12T02:07:06;5.13;;;2.72;;
78877;SDS011;68257;43.514;1.498;2023-09-12T02:09:32;5.70;;;2.97;;
78877;SDS011;68257;43.514;1.498;2023-09-12T02:11:57;4.53;;;2.77;;
78877;SDS011;68257;43.514;1.498;2023-09-12T02:14:22;4.60;;;3.03;;
78877;SDS011;68257;43.514;1.498;2023-09-12T02:16:48;5.90;;;3.10;;
78877;SDS011;68257;43.514;1.498;2023-09-12T02:19:13;6.63;;;3.53;;
78877;SDS011;68257;43.514;1.498;2023-09-12T02:21:39;7.63;;;3.30;;
78877;SDS011;68257;43.514;1.498;2023-09-12T02:24:04;6.40;;;3.20;;
78877;SDS011;68257;43.514;1.498;2023-09-12T02:26:30;4.80;;;3.40;;
78877;SDS011;68257;43.514;1.498;2023-09-12T02:29:00;4.82;;;3.15;;
78877;SDS011;68257;43.514;1.498;2023-09-12T02:31:26;5.22;;;3.38;;
78877;SDS011;68257;43.514;1.498;2023-09-12T02:33:52;6.27;;;3.63;;
78877;SDS011;68257;43.514;1.498;2023-09-12T02:36:19;5.85;;;3.42;;
78877;SDS011;68257;43.514;1.498;2023-09-12T02:38:44;7.73;;;3.60;;
78877;SDS011;68257;43.514;1.498;2023-09-12T02:41:09;5.80;;;3.90;;
78877;SDS011;68257;43.514;1.498;2023-09-12T02:43:35;5.77;;;3.77;;
78877;SDS011;68257;43.514;1.498;2023-09-12T02:46:00;6.43;;;3.80;;
78877;SDS011;68257;43.514;1.498;2023-09-12T02:48:26;5.93;;;3.60;;
78877;SDS011;68257;43.514;1.498;2023-09-12T02:50:51;6.10;;;3.37;;
78877;SDS011;68257;43.514;1.498;2023-09-12T02:53:16;5.90;;;4.07;;
78877;SDS011;68257;43.514;1.498;2023-09-12T02:55:42;6.47;;;3.80;;
78877;SDS011;68257;43.514;1.498;2023-09-12T02:58:07;6.53;;;3.83;;
78877;SDS011;68257;43.514;1.498;2023-09-12T03:00:37;6.70;;;4.27;;
78877;SDS011;68257;43.514;1.498;2023-09-12T03:03:03;5.43;;;3.53;;
78877;SDS011;68257;43.514;1.498;2023-09-12T03:05:28;6.57;;;3.80;;
78877;SDS011;68257;43.514;1.498;2023-09-12T03:07:54;5.73;;;3.90;;
78877;SDS011;68257;43.514;1.498;2023-09-12T03:10:19;6.03;;;4.00;;
78877;SDS011;68257;43.514;1.498;2023-09-12T03:12:45;6.10;;;3.90;;
78877;SDS011;68257;43.514;1.498;2023-09-12T03:15:10;9.07;;;4.10;;
78877;SDS011;68257;43.514;1.498;2023-09-12T03:17:36;6.57;;;3.70;;
78877;SDS011;68257;43.514;1.498;2023-09-12T03:20:01;6.47;;;3.95;;
78877;SDS011;68257;43.514;1.498;2023-09-12T03:22:29;5.70;;;3.63;;
78877;SDS011;68257;43.514;1.498;2023-09-12T03:24:57;7.60;;;3.95;;
78877;SDS011;68257;43.514;1.498;2023-09-12T03:27:22;6.87;;;4.10;;
78877;SDS011;68257;43.514;1.498;2023-09-12T03:29:47;6.67;;;3.90;;
78877;SDS011;68257;43.514;1.498;2023-09-12T03:32:13;6.10;;;3.87;;
78877;SDS011;68257;43.514;1.498;2023-09-12T03:34:38;6.50;;;3.90;;
78877;SDS011;68257;43.514;1.498;2023-09-12T03:37:04;9.17;;;4.20;;
78877;SDS011;68257;43.514;1.498;2023-09-12T03:39:29;7.80;;;3.80;;
78877;SDS011;68257;43.514;1.498;2023-09-12T03:41:54;6.83;;;3.57;;
78877;SDS011;68257;43.514;1.498;2023-09-12T03:44:20;7.45;;;3.45;;
78877;SDS011;68257;43.514;1.498;2023-09-12T03:46:45;7.07;;;3.70;;
78877;SDS011;68257;43.514;1.498;2023-09-12T03:49:11;5.87;;;4.10;;
78877;SDS011;68257;43.514;1.498;2023-09-12T03:51:36;6.23;;;4.20;;
78877;SDS011;68257;43.514;1.498;2023-09-12T03:54:03;5.90;;;3.95;;
78877;SDS011;68257;43.514;1.498;2023-09-12T03:56:28;8.00;;;4.20;;
78877;SDS011;68257;43.514;1.498;2023-09-12T03:58:53;7.68;;;4.00;;
78877;SDS011;68257;43.514;1.498;2023-09-12T04:01:22;6.50;;;3.80;;
78877;SDS011;68257;43.514;1.498;2023-09-12T04:03:48;6.00;;;4.10;;
78877;SDS011;68257;43.514;1.498;2023-09-12T04:06:13;6.80;;;4.40;;
78877;SDS011;68257;43.514;1.498;2023-09-12T04:08:38;5.67;;;3.90;;
78877;SDS011;68257;43.514;1.498;2023-09-12T04:11:04;8.20;;;4.20;;
78877;SDS011;68257;43.514;1.498;2023-09-12T04:13:29;7.63;;;4.27;;
78877;SDS011;68257;43.514;1.498;2023-09-12T04:15:55;6.07;;;4.10;;
78877;SDS011;68257;43.514;1.498;2023-09-12T04:18:21;6.90;;;4.07;;
78877;SDS011;68257;43.514;1.498;2023-09-12T04:20:46;6.30;;;4.18;;
78877;SDS011;68257;43.514;1.498;2023-09-12T04:23:11;5.83;;;3.80;;
78877;SDS011;68257;43.514;1.498;2023-09-12T04:25:37;7.40;;;3.50;;
78877;SDS011;68257;43.514;1.498;2023-09-12T04:28:02;5.63;;;3.80;;
78877;SDS011;68257;43.514;1.498;2023-09-12T04:30:28;7.03;;;3.95;;
78877;SDS011;68257;43.514;1.498;2023-09-12T04:32:53;6.23;;;3.60;;
78877;SDS011;68257;43.514;1.498;2023-09-12T04:35:19;6.87;;;3.50;;
78877;SDS011;68257;43.514;1.498;2023-09-12T04:37:45;5.70;;;3.67;;
78877;SDS011;68257;43.514;1.498;2023-09-12T04:40:12;8.13;;;3.95;;
78877;SDS011;68257;43.514;1.498;2023-09-12T04:42:37;5.63;;;3.80;;
78877;SDS011;68257;43.514;1.498;2023-09-12T04:45:03;5.90;;;4.00;;
78877;SDS011;68257;43.514;1.498;2023-09-12T04:47:29;5.93;;;3.78;;
78877;SDS011;68257;43.514;1.498;2023-09-12T04:49:54;6.37;;;4.07;;
78877;SDS011;68257;43.514;1.498;2023-09-12T04:52:19;7.27;;;4.10;;
78877;SDS011;68257;43.514;1.498;2023-09-12T04:54:45;7.17;;;3.90;;
78877;SDS011;68257;43.514;1.498;2023-09-12T04:57:10;8.27;;;3.93;;
78877;SDS011;68257;43.514;1.498;2023-09-12T04:59:35;6.63;;;3.70;;
78877;SDS011;68257;43.514;1.498;2023-09-12T05:02:01;5.77;;;4.43;;
78877;SDS011;68257;43.514;1.498;2023-09-12T05:04:27;7.20;;;4.13;;
78877;SDS011;68257;43.514;1.498;2023-09-12T05:06:53;7.77;;;4.10;;
78877;SDS011;68257;43.514;1.498;2023-09-12T05:09:18;9.20;;;4.43;;
78877;SDS011;68257;43.514;1.498;2023-09-12T05:11:43;6.97;;;4.07;;
78877;SDS011;68257;43.514;1.498;2023-09-12T05:14:09;9.47;;;4.03;;
78877;SDS011;68257;43.514;1.498;2023-09-12T05:16:34;7.47;;;4.00;;
78877;SDS011;68257;43.514;1.498;2023-09-12T05:19:00;7.23;;;3.83;;
78877;SDS011;68257;43.514;1.498;2023-09-12T05:21:25;6.33;;;4.10;;
78877;SDS011;68257;43.514;1.498;2023-09-12T05:23:51;8.73;;;4.10;;
78877;SDS011;68257;43.514;1.498;2023-09-12T05:26:16;6.50;;;4.30;;
78877;SDS011;68257;43.514;1.498;2023-09-12T05:28:41;7.30;;;4.30;;
78877;SDS011;68257;43.514;1.498;2023-09-12T05:31:07;7.13;;;3.97;;
78877;SDS011;68257;43.514;1.498;2023-09-12T05:33:32;7.03;;;4.33;;
78877;SDS011;68257;43.514;1.498;2023-09-12T05:35:58;7.73;;;4.73;;
78877;SDS011;68257;43.514;1.498;2023-09-12T05:38:23;6.63;;;4.00;;
78877;SDS011;68257;43.514;1.498;2023-09-12T05:40:48;5.60;;;4.30;;
78877;SDS011;68257;43.514;1.498;2023-09-12T05:43:17;7.57;;;4.47;;
78877;SDS011;68257;43.514;1.498;2023-09-12T05:45:42;6.27;;;4.10;;
78877;SDS011;68257;43.514;1.498;2023-09-12T05:48:08;5.97;;;4.30;;
78877;SDS011;68257;43.514;1.498;2023-09-12T05:50:34;8.07;;;4.40;;
78877;SDS011;68257;43.514;1.498;2023-09-12T05:53:01;7.25;;;4.38;;
78877;SDS011;68257;43.514;1.498;2023-09-12T05:55:27;7.57;;;4.10;;
78877;SDS011;68257;43.514;1.498;2023-09-12T05:57:52;10.30;;;4.70;;
78877;SDS011;68257;43.514;1.498;2023-09-12T06:00:18;5.97;;;3.83;;
78877;SDS011;68257;43.514;1.498;2023-09-12T06:02:44;7.33;;;4.10;;
78877;SDS011;68257;43.514;1.498;2023-09-12T06:05:10;7.38;;;4.30;;
78877;SDS011;68257;43.514;1.498;2023-09-12T06:07:36;10.13;;;4.40;;
78877;SDS011;68257;43.514;1.498;2023-09-12T06:10:02;6.57;;;4.38;;
78877;SDS011;68257;43.514;1.498;2023-09-12T06:12:28;6.45;;;3.90;;
78877;SDS011;68257;43.514;1.498;2023-09-12T06:14:53;6.70;;;4.60;;
78877;SDS011;68257;43.514;1.498;2023-09-12T06:17:20;9.55;;;4.03;;
78877;SDS011;68257;43.514;1.498;2023-09-12T06:19:47;6.38;;;4.00;;
78877;SDS011;68257;43.514;1.498;2023-09-12T06:22:14;6.70;;;4.10;;
78877;SDS011;68257;43.514;1.498;2023-09-12T06:24:40;6.78;;;4.38;;
78877;SDS011;68257;43.514;1.498;2023-09-12T06:27:05;5.93;;;3.70;;
78877;SDS011;68257;43.514;1.498;2023-09-12T06:29:31;7.57;;;4.05;;
78877;SDS011;68257;43.514;1.498;2023-09-12T06:31:56;6.90;;;4.03;;
78877;SDS011;68257;43.514;1.498;2023-09-12T06:34:22;6.75;;;3.53;;
78877;SDS011;68257;43.514;1.498;2023-09-12T06:36:48;6.20;;;3.80;;
78877;SDS011;68257;43.514;1.498;2023-09-12T06:39:13;6.77;;;3.63;;
78877;SDS011;68257;43.514;1.498;2023-09-12T06:41:38;7.73;;;4.37;;
78877;SDS011;68257;43.514;1.498;2023-09-12T06:44:04;5.53;;;3.70;;
78877;SDS011;68257;43.514;1.498;2023-09-12T06:46:30;8.18;;;3.55;;
78877;SDS011;68257;43.514;1.498;2023-09-12T06:48:56;5.55;;;3.50;;
78877;SDS011;68257;43.514;1.498;2023-09-12T06:51:24;6.07;;;3.80;;
78877;SDS011;68257;43.514;1.498;2023-09-12T06:53:51;8.73;;;3.92;;
78877;SDS011;68257;43.514;1.498;2023-09-12T06:56:16;6.45;;;4.05;;
78877;SDS011;68257;43.514;1.498;2023-09-12T06:58:42;7.57;;;3.87;;
78877;SDS011;68257;43.514;1.498;2023-09-12T07:01:07;5.67;;;3.90;;
78877;SDS011;68257;43.514;1.498;2023-09-12T07:03:33;5.17;;;3.50;;
78877;SDS011;68257;43.514;1.498;2023-09-12T07:05:59;8.37;;;4.10;;
78877;SDS011;68257;43.514;1.498;2023-09-12T07:08:25;7.72;;;3.70;;
78877;SDS011;68257;43.514;1.498;2023-09-12T07:10:50;4.97;;;3.67;;
78877;SDS011;68257;43.514;1.498;2023-09-12T07:13:16;6.90;;;3.93;;
78877;SDS011;68257;43.514;1.498;2023-09-12T07:15:41;5.37;;;3.50;;
78877;SDS011;68257;43.514;1.498;2023-09-12T07:18:07;6.23;;;3.57;;
78877;SDS011;68257;43.514;1.498;2023-09-12T07:20:33;7.67;;;4.00;;
78877;SDS011;68257;43.514;1.498;2023-09-12T07:22:59;6.43;;;3.92;;
78877;SDS011;68257;43.514;1.498;2023-09-12T07:25:24;6.57;;;3.90;;
78877;SDS011;68257;43.514;1.498;2023-09-12T07:27:50;5.45;;;3.50;;
78877;SDS011;68257;43.514;1.498;2023-09-12T07:30:16;5.07;;;3.33;;
78877;SDS011;68257;43.514;1.498;2023-09-12T07:32:41;7.20;;;3.80;;
78877;SDS011;68257;43.514;1.498;2023-09-12T07:35:07;6.50;;;3.80;;
78877;SDS011;68257;43.514;1.498;2023-09-12T07:37:32;7.47;;;4.50;;
78877;SDS011;68257;43.514;1.498;2023-09-12T07:39:58;8.80;;;4.37;;
78877;SDS011;68257;43.514;1.498;2023-09-12T07:42:23;8.20;;;4.17;;
78877;SDS011;68257;43.514;1.498;2023-09-12T07:44:49;7.20;;;4.20;;
78877;SDS011;68257;43.514;1.498;2023-09-12T07:47:15;4.93;;;3.67;;
78877;SDS011;68257;43.514;1.498;2023-09-12T07:49:40;7.40;;;3.70;;
78877;SDS011;68257;43.514;1.498;2023-09-12T07:52:06;6.13;;;3.30;;
78877;SDS011;68257;43.514;1.498;2023-09-12T07:54:31;6.40;;;3.58;;
78877;SDS011;68257;43.514;1.498;2023-09-12T07:56:57;6.73;;;3.77;;
78877;SDS011;68257;43.514;1.498;2023-09-12T07:59:22;6.40;;;3.13;;
78877;SDS011;68257;43.514;1.498;2023-09-12T08:01:47;7.47;;;3.50;;
78877;SDS011;68257;43.514;1.498;2023-09-12T08:04:13;7.33;;;3.60;;
78877;SDS011;68257;43.514;1.498;2023-09-12T08:06:39;6.07;;;3.47;;
78877;SDS011;68257;43.514;1.498;2023-09-12T08:09:06;7.20;;;3.40;;
78877;SDS011;68257;43.514;1.498;2023-09-12T08:11:31;4.90;;;3.50;;
78877;SDS011;68257;43.514;1.498;2023-09-12T08:13:57;5.83;;;3.47;;
78877;SDS011;68257;43.514;1.498;2023-09-12T08:16:22;5.20;;;3.50;;
78877;SDS011;68257;43.514;1.498;2023-09-12T08:18:48;5.43;;;3.80;;
78877;SDS011;68257;43.514;1.498;2023-09-12T08:21:13;6.90;;;3.20;;
78877;SDS011;68257;43.514;1.498;2023-09-12T08:23:38;7.93;;;3.80;;
78877;SDS011;68257;43.514;1.498;2023-09-12T08:26:04;6.27;;;3.77;;
78877;SDS011;68257;43.514;1.498;2023-09-12T08:28:29;6.20;;;3.77;;
78877;SDS011;68257;43.514;1.498;2023-09-12T08:30:55;5.93;;;3.77;;
78877;SDS011;68257;43.514;1.498;2023-09-12T08:33:20;5.82;;;3.75;;
78877;SDS011;68257;43.514;1.498;2023-09-12T08:35:45;7.57;;;3.90;;
78877;SDS011;68257;43.514;1.498;2023-09-12T08:38:11;7.00;;;4.40;;
78877;SDS011;68257;43.514;1.498;2023-09-12T08:40:37;8.55;;;4.20;;
78877;SDS011;68257;43.514;1.498;2023-09-12T08:43:03;7.47;;;4.20;;
78877;SDS011;68257;43.514;1.498;2023-09-12T08:45:29;6.93;;;3.78;;
78877;SDS011;68257;43.514;1.498;2023-09-12T08:47:55;7.07;;;4.00;;
78877;SDS011;68257;43.514;1.498;2023-09-12T08:50:22;8.13;;;4.10;;
78877;SDS011;68257;43.514;1.498;2023-09-12T08:52:48;6.53;;;3.60;;
78877;SDS011;68257;43.514;1.498;2023-09-12T08:55:15;7.00;;;4.07;;
78877;SDS011;68257;43.514;1.498;2023-09-12T08:57:41;6.93;;;4.07;;
78877;SDS011;68257;43.514;1.498;2023-09-12T09:00:07;6.23;;;4.13;;
78877;SDS011;68257;43.514;1.498;2023-09-12T09:02:37;5.82;;;3.95;;
78877;SDS011;68257;43.514;1.498;2023-09-12T09:05:04;6.97;;;3.80;;
78877;SDS011;68257;43.514;1.498;2023-09-12T09:07:38;5.78;;;4.05;;
78877;SDS011;68257;43.514;1.498;2023-09-12T09:10:05;9.38;;;4.30;;
78877;SDS011;68257;43.514;1.498;2023-09-12T09:12:32;8.57;;;5.13;;
78877;SDS011;68257;43.514;1.498;2023-09-12T09:14:58;7.45;;;4.80;;
78877;SDS011;68257;43.514;1.498;2023-09-12T09:17:24;8.65;;;5.88;;
78877;SDS011;68257;43.514;1.498;2023-09-12T09:19:50;9.93;;;6.27;;
78877;SDS011;68257;43.514;1.498;2023-09-12T09:22:15;7.93;;;5.67;;
78877;SDS011;68257;43.514;1.498;2023-09-12T09:24:41;10.93;;;5.85;;
78877;SDS011;68257;43.514;1.498;2023-09-12T09:27:06;8.73;;;6.00;;
78877;SDS011;68257;43.514;1.498;2023-09-12T09:29:32;10.63;;;6.17;;
78877;SDS011;68257;43.514;1.498;2023-09-12T09:32:00;14.13;;;7.00;;
78877;SDS011;68257;43.514;1.498;2023-09-12T09:34:30;9.90;;;6.30;;
78877;SDS011;68257;43.514;1.498;2023-09-12T09:36:57;10.48;;;6.20;;
78877;SDS011;68257;43.514;1.498;2023-09-12T09:39:23;13.53;;;6.27;;
78877;SDS011;68257;43.514;1.498;2023-09-12T09:41:50;9.40;;;5.72;;
78877;SDS011;68257;43.514;1.498;2023-09-12T09:44:16;9.88;;;6.20;;
78877;SDS011;68257;43.514;1.498;2023-09-12T09:46:43;9.43;;;6.50;;
78877;SDS011;68257;43.514;1.498;2023-09-12T09:49:15;7.90;;;5.75;;
78877;SDS011;68257;43.514;1.498;2023-09-12T09:51:42;9.57;;;5.68;;
78877;SDS011;68257;43.514;1.498;2023-09-12T09:54:08;9.05;;;5.03;;
78877;SDS011;68257;43.514;1.498;2023-09-12T09:56:44;9.93;;;5.30;;
78877;SDS011;68257;43.514;1.498;2023-09-12T09:59:19;8.55;;;5.35;;
78877;SDS011;68257;43.514;1.498;2023-09-12T10:01:46;9.73;;;5.35;;
78877;SDS011;68257;43.514;1.498;2023-09-12T10:04:13;8.85;;;5.45;;
78877;SDS011;68257;43.514;1.498;2023-09-12T10:06:39;9.60;;;5.30;;
78877;SDS011;68257;43.514;1.498;2023-09-12T10:09:09;8.20;;;4.63;;
78877;SDS011;68257;43.514;1.498;2023-09-12T10:11:39;8.15;;;4.97;;
78877;SDS011;68257;43.514;1.498;2023-09-12T10:14:06;9.10;;;5.25;;
78877;SDS011;68257;43.514;1.498;2023-09-12T10:16:32;8.02;;;4.88;;
78877;SDS011;68257;43.514;1.498;2023-09-12T10:21:29;7.93;;;4.30;;
78877;SDS011;68257;43.514;1.498;2023-09-12T10:23:57;6.78;;;4.47;;
78877;SDS011;68257;43.514;1.498;2023-09-12T10:26:23;11.90;;;5.13;;
78877;SDS011;68257;43.514;1.498;2023-09-12T10:28:49;7.30;;;4.60;;
78877;SDS011;68257;43.514;1.498;2023-09-12T10:31:16;7.35;;;4.30;;
78877;SDS011;68257;43.514;1.498;2023-09-12T10:33:42;8.45;;;4.40;;
78877;SDS011;68257;43.514;1.498;2023-09-12T10:36:09;6.15;;;4.05;;
78877;SDS011;68257;43.514;1.498;2023-09-12T10:38:43;8.27;;;4.37;;
78877;SDS011;68257;43.514;1.498;2023-09-12T10:41:11;7.47;;;4.38;;
78877;SDS011;68257;43.514;1.498;2023-09-12T10:43:39;6.93;;;4.55;;
78877;SDS011;68257;43.514;1.498;2023-09-12T10:46:05;6.45;;;4.65;;
78877;SDS011;68257;43.514;1.498;2023-09-12T10:48:32;8.63;;;5.30;;
78877;SDS011;68257;43.514;1.498;2023-09-12T10:51:00;7.43;;;4.97;;
78877;SDS011;68257;43.514;1.498;2023-09-12T10:53:26;7.13;;;4.70;;
78877;SDS011;68257;43.514;1.498;2023-09-12T10:56:00;11.75;;;6.38;;
78877;SDS011;68257;43.514;1.498;2023-09-12T10:58:27;6.65;;;4.82;;
78877;SDS011;68257;43.514;1.498;2023-09-12T11:03:47;7.82;;;5.10;;
78877;SDS011;68257;43.514;1.498;2023-09-12T11:06:19;8.07;;;4.90;;
78877;SDS011;68257;43.514;1.498;2023-09-12T11:09:03;8.23;;;4.97;;
78877;SDS011;68257;43.514;1.498;2023-09-12T11:11:58;8.30;;;5.20;;
78877;SDS011;68257;43.514;1.498;2023-09-12T11:14:27;8.82;;;4.90;;
78877;SDS011;68257;43.514;1.498;2023-09-12T11:19:43;7.30;;;4.80;;
78877;SDS011;68257;43.514;1.498;2023-09-12T11:24:54;6.47;;;4.72;;
78877;SDS011;68257;43.514;1.498;2023-09-12T11:27:30;8.23;;;5.32;;
78877;SDS011;68257;43.514;1.498;2023-09-12T11:30:03;8.83;;;4.60;;
78877;SDS011;68257;43.514;1.498;2023-09-12T11:32:34;8.43;;;4.50;;
78877;SDS011;68257;43.514;1.498;2023-09-12T11:35:04;5.00;;;4.00;;
78877;SDS011;68257;43.514;1.498;2023-09-12T11:37:31;6.50;;;4.53;;
78877;SDS011;68257;43.514;1.498;2023-09-12T11:39:58;7.93;;;4.75;;
78877;SDS011;68257;43.514;1.498;2023-09-12T11:42:24;7.77;;;4.20;;
78877;SDS011;68257;43.514;1.498;2023-09-12T11:44:51;6.53;;;4.15;;
78877;SDS011;68257;43.514;1.498;2023-09-12T11:47:17;7.05;;;3.67;;
78877;SDS011;68257;43.514;1.498;2023-09-12T11:49:42;5.73;;;4.07;;
78877;SDS011;68257;43.514;1.498;2023-09-12T11:52:09;6.17;;;4.00;;
78877;SDS011;68257;43.514;1.498;2023-09-12T11:54:35;6.43;;;3.90;;
78877;SDS011;68257;43.514;1.498;2023-09-12T11:57:01;5.30;;;3.77;;
78877;SDS011;68257;43.514;1.498;2023-09-12T11:59:27;6.90;;;3.80;;
78877;SDS011;68257;43.514;1.498;2023-09-12T12:01:55;7.40;;;4.17;;
78877;SDS011;68257;43.514;1.498;2023-09-12T12:04:24;5.68;;;3.92;;
78877;SDS011;68257;43.514;1.498;2023-09-12T12:06:50;6.70;;;4.22;;
78877;SDS011;68257;43.514;1.498;2023-09-12T12:09:17;6.60;;;4.50;;
78877;SDS011;68257;43.514;1.498;2023-09-12T12:11:44;7.55;;;4.03;;
78877;SDS011;68257;43.514;1.498;2023-09-12T12:14:14;7.95;;;4.18;;
78877;SDS011;68257;43.514;1.498;2023-09-12T12:16:41;7.68;;;4.45;;
78877;SDS011;68257;43.514;1.498;2023-09-12T12:19:08;7.25;;;4.28;;
78877;SDS011;68257;43.514;1.498;2023-09-12T12:21:34;7.97;;;4.40;;
78877;SDS011;68257;43.514;1.498;2023-09-12T12:24:00;7.00;;;4.40;;
78877;SDS011;68257;43.514;1.498;2023-09-12T12:26:26;5.73;;;4.10;;
78877;SDS011;68257;43.514;1.498;2023-09-12T12:28:52;6.63;;;4.50;;
78877;SDS011;68257;43.514;1.498;2023-09-12T12:31:18;8.00;;;4.25;;
78877;SDS011;68257;43.514;1.498;2023-09-12T12:33:50;7.40;;;4.70;;
78877;SDS011;68257;43.514;1.498;2023-09-12T12:36:17;7.05;;;4.15;;
78877;SDS011;68257;43.514;1.498;2023-09-12T12:38:43;8.77;;;4.30;;
78877;SDS011;68257;43.514;1.498;2023-09-12T12:41:11;7.32;;;4.88;;
78877;SDS011;68257;43.514;1.498;2023-09-12T12:43:39;7.23;;;4.50;;
78877;SDS011;68257;43.514;1.498;2023-09-12T12:46:09;8.60;;;4.32;;
78877;SDS011;68257;43.514;1.498;2023-09-12T12:48:36;6.72;;;4.60;;
78877;SDS011;68257;43.514;1.498;2023-09-12T12:51:14;8.97;;;5.07;;
78877;SDS011;68257;43.514;1.498;2023-09-12T12:53:50;7.65;;;4.45;;
78877;SDS011;68257;43.514;1.498;2023-09-12T12:56:19;8.10;;;4.40;;
78877;SDS011;68257;43.514;1.498;2023-09-12T12:58:54;5.75;;;4.15;;
78877;SDS011;68257;43.514;1.498;2023-09-12T13:01:22;5.80;;;4.20;;
78877;SDS011;68257;43.514;1.498;2023-09-12T13:03:47;5.43;;;3.93;;
78877;SDS011;68257;43.514;1.498;2023-09-12T13:06:15;5.43;;;4.10;;
78877;SDS011;68257;43.514;1.498;2023-09-12T13:08:42;7.35;;;4.47;;
78877;SDS011;68257;43.514;1.498;2023-09-12T13:11:11;6.80;;;4.47;;
78877;SDS011;68257;43.514;1.498;2023-09-12T13:13:40;6.90;;;4.40;;
78877;SDS011;68257;43.514;1.498;2023-09-12T13:16:08;7.93;;;4.30;;
78877;SDS011;68257;43.514;1.498;2023-09-12T13:18:35;7.57;;;4.10;;
78877;SDS011;68257;43.514;1.498;2023-09-12T13:21:01;8.35;;;4.97;;
78877;SDS011;68257;43.514;1.498;2023-09-12T13:23:27;7.10;;;4.53;;
78877;SDS011;68257;43.514;1.498;2023-09-12T13:25:52;7.15;;;4.63;;
78877;SDS011;68257;43.514;1.498;2023-09-12T13:28:18;6.80;;;4.37;;
78877;SDS011;68257;43.514;1.498;2023-09-12T13:30:44;7.32;;;4.65;;
78877;SDS011;68257;43.514;1.498;2023-09-12T13:33:10;6.53;;;4.43;;
78877;SDS011;68257;43.514;1.498;2023-09-12T13:35:36;5.90;;;4.33;;
78877;SDS011;68257;43.514;1.498;2023-09-12T13:38:01;6.72;;;4.60;;
78877;SDS011;68257;43.514;1.498;2023-09-12T13:40:28;8.23;;;4.80;;
78877;SDS011;68257;43.514;1.498;2023-09-12T13:42:54;6.50;;;4.20;;
78877;SDS011;68257;43.514;1.498;2023-09-12T13:45:19;6.43;;;4.90;;
78877;SDS011;68257;43.514;1.498;2023-09-12T13:47:45;6.87;;;4.30;;
78877;SDS011;68257;43.514;1.498;2023-09-12T13:50:10;6.45;;;4.13;;
78877;SDS011;68257;43.514;1.498;2023-09-12T13:52:35;9.77;;;5.00;;
78877;SDS011;68257;43.514;1.498;2023-09-12T13:55:01;7.43;;;4.90;;
78877;SDS011;68257;43.514;1.498;2023-09-12T13:57:28;9.35;;;5.00;;
78877;SDS011;68257;43.514;1.498;2023-09-12T13:59:54;7.10;;;5.28;;
78877;SDS011;68257;43.514;1.498;2023-09-12T14:02:19;6.53;;;5.00;;
78877;SDS011;68257;43.514;1.498;2023-09-12T14:04:45;7.80;;;5.03;;
78877;SDS011;68257;43.514;1.498;2023-09-12T14:07:10;6.57;;;5.05;;
78877;SDS011;68257;43.514;1.498;2023-09-12T14:09:36;9.93;;;5.23;;
78877;SDS011;68257;43.514;1.498;2023-09-12T14:12:01;9.37;;;5.30;;
78877;SDS011;68257;43.514;1.498;2023-09-12T14:14:28;8.77;;;5.60;;
78877;SDS011;68257;43.514;1.498;2023-09-12T14:16:53;7.70;;;4.90;;
78877;SDS011;68257;43.514;1.498;2023-09-12T14:19:19;7.57;;;4.73;;
78877;SDS011;68257;43.514;1.498;2023-09-12T14:21:44;7.33;;;4.83;;
78877;SDS011;68257;43.514;1.498;2023-09-12T14:24:09;8.30;;;5.37;;
78877;SDS011;68257;43.514;1.498;2023-09-12T14:26:35;6.87;;;5.47;;
78877;SDS011;68257;43.514;1.498;2023-09-12T14:29:00;7.67;;;5.93;;
78877;SDS011;68257;43.514;1.498;2023-09-12T14:31:25;6.57;;;5.77;;
78877;SDS011;68257;43.514;1.498;2023-09-12T14:33:51;7.13;;;5.57;;
78877;SDS011;68257;43.514;1.498;2023-09-12T14:36:17;8.73;;;6.50;;
78877;SDS011;68257;43.514;1.498;2023-09-12T14:38:44;7.53;;;5.63;;
78877;SDS011;68257;43.514;1.498;2023-09-12T14:41:11;6.45;;;5.63;;
78877;SDS011;68257;43.514;1.498;2023-09-12T14:43:37;7.05;;;5.25;;
78877;SDS011;68257;43.514;1.498;2023-09-12T14:46:03;6.87;;;4.90;;
78877;SDS011;68257;43.514;1.498;2023-09-12T14:48:30;7.82;;;4.90;;
78877;SDS011;68257;43.514;1.498;2023-09-12T14:50:58;8.55;;;4.80;;
78877;SDS011;68257;43.514;1.498;2023-09-12T14:53:26;6.23;;;4.70;;
78877;SDS011;68257;43.514;1.498;2023-09-12T14:55:52;7.75;;;4.70;;
78877;SDS011;68257;43.514;1.498;2023-09-12T14:58:18;5.93;;;4.63;;
78877;SDS011;68257;43.514;1.498;2023-09-12T15:00:43;5.93;;;4.00;;